Time,TemperatureF,DewpointF,PressureIn,WindDirection,WindDirectionDegrees,WindSpeedMPH,WindSpeedGustMPH,Humidity,HourlyPrecipIn,Conditions,Clouds,dailyrainin,SoftwareType,DateUTC
2013-06-19 00:12:00,57.9,55.0,25.76,WNW,294,1.0,4.0,89,0.01,,,0.00,weatherlink.com 1.10,2013-06-19 06:12:00,
2013-06-19 00:27:00,58.4,55.0,25.76,SSW,210,3.0,10.0,87,0.00,,,0.00,weatherlink.com 1.10,2013-06-19 06:27:00,
2013-06-19 00:42:00,58.5,55.0,25.75,WSW,243,3.0,6.0,87,0.00,,,0.00,weatherlink.com 1.10,2013-06-19 06:42:00,
2013-06-19 00:57:00,59.0,55.0,25.75,South,170,13.0,15.0,85,0.00,,,0.00,weatherlink.com 1.10,2013-06-19 06:57:00,
2013-06-19 01:12:00,59.2,54.0,25.74,SW,214,6.0,14.0,84,0.00,,,0.00,weatherlink.com 1.10,2013-06-19 07:12:00,
2013-06-19 01:27:00,59.0,54.0,25.73,South,186,9.0,14.0,84,0.00,,,0.00,weatherlink.com 1.10,2013-06-19 07:27:00,
2013-06-19 01:42:00,58.4,55.0,25.74,SSW,207,7.0,14.0,88,0.00,,,0.00,weatherlink.com 1.10,2013-06-19 07:42:00,
2013-06-19 01:57:00,58.0,55.0,25.74,SSW,195,9.0,10.0,89,0.00,,,0.00,weatherlink.com 1.10,2013-06-19 07:57:00,
2013-06-19 02:12:00,58.1,55.0,25.73,SSE,160,7.0,9.0,90,0.00,,,0.00,weatherlink.com 1.10,2013-06-19 08:12:00,
2013-06-19 02:27:00,58.3,55.0,25.73,SE,136,10.0,11.0,89,0.00,,,0.00,weatherlink.com 1.10,2013-06-19 08:27:00,
2013-06-19 02:42:00,58.6,55.0,25.73,SSE,156,11.0,19.0,86,0.00,,,0.00,weatherlink.com 1.10,2013-06-19 08:42:00,
2013-06-19 02:57:00,58.0,54.0,25.73,SSE,158,6.0,12.0,87,0.00,,,0.00,weatherlink.com 1.10,2013-06-19 08:57:00,
2013-06-19 03:12:00,57.8,54.0,25.72,SSE,163,4.0,10.0,88,0.00,,,0.00,weatherlink.com 1.10,2013-06-19 09:12:00,
2013-06-19 03:28:00,57.3,54.0,25.73,West,271,4.0,12.0,89,0.00,,,0.00,weatherlink.com 1.10,2013-06-19 09:28:00,
2013-06-19 03:43:00,56.4,54.0,25.73,SSW,195,6.0,11.0,92,0.00,,,0.00,weatherlink.com 1.10,2013-06-19 09:43:00,
2013-06-19 03:58:00,56.1,54.0,25.72,SW,214,5.0,9.0,93,0.00,,,0.00,weatherlink.com 1.10,2013-06-19 09:58:00,
2013-06-19 04:13:00,55.6,54.0,25.72,WSW,248,4.0,7.0,93,0.00,,,0.00,weatherlink.com 1.10,2013-06-19 10:13:00,
2013-06-19 04:28:00,55.5,54.0,25.71,WSW,242,4.0,7.0,94,0.00,,,0.00,weatherlink.com 1.10,2013-06-19 10:28:00,
2013-06-19 04:43:00,55.1,54.0,25.71,West,259,5.0,8.0,94,0.00,,,0.00,weatherlink.com 1.10,2013-06-19 10:43:00,
2013-06-19 04:58:00,55.2,54.0,25.71,SSW,207,7.0,11.0,95,0.00,,,0.00,weatherlink.com 1.10,2013-06-19 10:58:00,
2013-06-19 05:13:00,55.7,54.0,25.72,West,278,4.0,9.0,93,0.00,,,0.00,weatherlink.com 1.10,2013-06-19 11:13:00,
2013-06-19 05:28:00,55.6,54.0,25.72,WSW,238,1.0,5.0,93,0.00,,,0.00,weatherlink.com 1.10,2013-06-19 11:28:00,
2013-06-19 05:43:00,55.3,53.0,25.71,SW,215,3.0,7.0,93,0.00,,,0.00,weatherlink.com 1.10,2013-06-19 11:43:00,
2013-06-19 05:58:00,55.4,54.0,25.71,SSW,212,3.0,6.0,93,0.00,,,0.00,weatherlink.com 1.10,2013-06-19 11:58:00,
2013-06-19 06:13:00,56.3,54.0,25.70,SSE,156,3.0,7.0,92,0.00,,,0.00,weatherlink.com 1.10,2013-06-19 12:13:00,
2013-06-19 06:28:00,57.2,55.0,25.70,SSE,158,2.0,5.0,92,0.00,,,0.00,weatherlink.com 1.10,2013-06-19 12:28:00,
2013-06-19 06:43:00,58.4,56.0,25.70,SW,222,4.0,8.0,91,0.00,,,0.00,weatherlink.com 1.10,2013-06-19 12:43:00,
2013-06-19 06:58:00,59.3,56.0,25.70,South,188,5.0,12.0,90,0.00,,,0.00,weatherlink.com 1.10,2013-06-19 12:58:00,
2013-06-19 07:13:00,60.0,57.0,25.70,SSE,162,6.0,13.0,89,0.00,,,0.00,weatherlink.com 1.10,2013-06-19 13:13:00,
2013-06-19 07:28:00,61.1,57.0,25.70,SSE,164,12.0,15.0,86,0.00,,,0.00,weatherlink.com 1.10,2013-06-19 13:28:00,
2013-06-19 07:43:00,62.0,58.0,25.70,South,169,10.0,18.0,85,0.00,,,0.00,weatherlink.com 1.10,2013-06-19 13:43:00,
2013-06-19 07:58:00,62.6,57.0,25.69,South,186,11.0,17.0,83,0.00,,,0.00,weatherlink.com 1.10,2013-06-19 13:58:00,
2013-06-19 08:13:00,63.7,57.0,25.69,SSE,163,9.0,18.0,80,0.00,,,0.00,weatherlink.com 1.10,2013-06-19 14:13:00,
2013-06-19 08:28:00,64.7,58.0,25.68,SSE,153,13.0,20.0,79,0.00,,,0.00,weatherlink.com 1.10,2013-06-19 14:28:00,
2013-06-19 08:43:00,65.7,57.0,25.68,SSE,167,13.0,22.0,73,0.00,,,0.00,weatherlink.com 1.10,2013-06-19 14:43:00,
2013-06-19 08:58:00,66.5,58.0,25.69,South,191,19.0,22.0,73,0.00,,,0.00,weatherlink.com 1.10,2013-06-19 14:58:00,
2013-06-19 09:13:00,67.1,58.0,25.67,SSW,205,12.0,24.0,72,0.00,,,0.00,weatherlink.com 1.10,2013-06-19 15:13:00,
2013-06-19 09:29:00,67.9,58.0,25.66,SW,224,12.0,23.0,70,0.00,,,0.00,weatherlink.com 1.10,2013-06-19 15:29:00,
2013-06-19 09:44:00,68.4,58.0,25.66,SSW,208,19.0,25.0,70,0.00,,,0.00,weatherlink.com 1.10,2013-06-19 15:44:00,
2013-06-19 09:59:00,68.9,59.0,25.66,South,176,13.0,23.0,70,0.00,,,0.00,weatherlink.com 1.10,2013-06-19 15:59:00,
2013-06-19 10:14:00,69.4,59.0,25.65,SSW,201,18.0,29.0,70,0.00,,,0.00,weatherlink.com 1.10,2013-06-19 16:14:00,
2013-06-19 10:29:00,70.2,60.0,25.65,SSW,207,15.0,23.0,69,0.00,,,0.00,weatherlink.com 1.10,2013-06-19 16:29:00,
2013-06-19 10:44:00,70.3,59.0,25.64,SE,139,18.0,27.0,68,0.00,,,0.00,weatherlink.com 1.10,2013-06-19 16:44:00,
2013-06-19 10:59:00,70.9,61.0,25.65,SSE,162,18.0,26.0,70,0.00,,,0.00,weatherlink.com 1.10,2013-06-19 16:59:00,
2013-06-19 11:14:00,71.4,60.0,25.64,SE,146,19.0,23.0,68,0.00,,,0.00,weatherlink.com 1.10,2013-06-19 17:14:00,
2013-06-19 11:29:00,72.4,61.0,25.64,SSE,153,25.0,25.0,67,0.00,,,0.00,weatherlink.com 1.10,2013-06-19 17:29:00,
2013-06-19 11:44:00,72.9,62.0,25.64,SSE,160,15.0,26.0,68,0.00,,,0.00,weatherlink.com 1.10,2013-06-19 17:44:00,
2013-06-19 11:59:00,73.9,62.0,25.64,South,180,18.0,27.0,66,0.00,,,0.00,weatherlink.com 1.10,2013-06-19 17:59:00,
2013-06-19 12:14:00,74.6,62.0,25.63,SSW,198,17.0,35.0,66,0.00,,,0.00,weatherlink.com 1.10,2013-06-19 18:14:00,
2013-06-19 12:29:00,75.4,61.0,25.62,SSE,160,16.0,26.0,62,0.00,,,0.00,weatherlink.com 1.10,2013-06-19 18:29:00,
2013-06-19 12:44:00,76.5,61.0,25.62,SSW,193,18.0,30.0,60,0.00,,,0.00,weatherlink.com 1.10,2013-06-19 18:44:00,
2013-06-19 12:59:00,77.4,62.0,25.62,SSW,204,13.0,30.0,60,0.00,,,0.00,weatherlink.com 1.10,2013-06-19 18:59:00,
2013-06-19 13:14:00,77.9,61.0,25.61,SSW,201,14.0,27.0,57,0.00,,,0.00,weatherlink.com 1.10,2013-06-19 19:14:00,
2013-06-19 13:29:00,78.2,63.0,25.60,SSW,201,23.0,31.0,59,0.00,,,0.00,weatherlink.com 1.10,2013-06-19 19:29:00,
2013-06-19 13:44:00,78.7,63.0,25.60,SSE,153,20.0,29.0,59,0.00,,,0.00,weatherlink.com 1.10,2013-06-19 19:44:00,
2013-06-19 13:59:00,79.3,63.0,25.59,SSW,198,20.0,30.0,58,0.00,,,0.00,weatherlink.com 1.10,2013-06-19 19:59:00,
2013-06-19 14:14:00,80.0,64.0,25.59,SSE,150,19.0,32.0,58,0.00,,,0.00,weatherlink.com 1.10,2013-06-19 20:14:00,
2013-06-19 14:29:00,80.7,64.0,25.59,SSW,194,15.0,30.0,58,0.00,,,0.00,weatherlink.com 1.10,2013-06-19 20:29:00,
2013-06-19 14:45:00,81.2,64.0,25.58,SSW,193,22.0,29.0,56,0.00,,,0.00,weatherlink.com 1.10,2013-06-19 20:45:00,
2013-06-19 15:00:00,81.5,64.0,25.58,SSE,154,24.0,31.0,56,0.00,,,0.00,weatherlink.com 1.10,2013-06-19 21:00:00,
2013-06-19 15:15:00,81.9,64.0,25.57,SW,218,18.0,33.0,55,0.00,,,0.00,weatherlink.com 1.10,2013-06-19 21:15:00,
2013-06-19 15:30:00,81.8,63.0,25.57,SSW,193,25.0,32.0,54,0.00,,,0.00,weatherlink.com 1.10,2013-06-19 21:30:00,
2013-06-19 15:45:00,82.3,64.0,25.57,SW,224,22.0,33.0,54,0.00,,,0.00,weatherlink.com 1.10,2013-06-19 21:45:00,
2013-06-19 16:00:00,82.1,64.0,25.56,South,173,20.0,38.0,54,0.00,,,0.00,weatherlink.com 1.10,2013-06-19 22:00:00,
2013-06-19 16:15:00,82.4,64.0,25.56,SSE,150,28.0,35.0,54,0.00,,,0.00,weatherlink.com 1.10,2013-06-19 22:15:00,
2013-06-19 16:30:00,82.2,65.0,25.55,South,176,28.0,33.0,56,0.00,,,0.00,weatherlink.com 1.10,2013-06-19 22:30:00,
2013-06-19 16:45:00,82.4,64.0,25.55,South,170,20.0,36.0,54,0.00,,,0.00,weatherlink.com 1.10,2013-06-19 22:45:00,
2013-06-19 17:00:00,82.3,64.0,25.55,SSW,198,28.0,35.0,54,0.00,,,0.00,weatherlink.com 1.10,2013-06-19 23:00:00,
2013-06-19 17:15:00,82.7,65.0,25.54,SSE,148,28.0,34.0,55,0.00,,,0.00,weatherlink.com 1.10,2013-06-19 23:15:00,
2013-06-19 17:30:00,81.8,65.0,25.54,SW,224,26.0,36.0,56,0.00,,,0.00,weatherlink.com 1.10,2013-06-19 23:30:00,
2013-06-19 17:45:00,81.8,65.0,25.54,South,180,21.0,35.0,56,0.00,,,0.00,weatherlink.com 1.10,2013-06-19 23:45:00,
2013-06-19 18:00:00,81.7,64.0,25.54,SE,141,21.0,27.0,56,0.00,,,0.00,weatherlink.com 1.10,2013-06-20 00:00:00,
2013-06-19 18:15:00,81.9,64.0,25.53,SSE,165,25.0,33.0,54,0.00,,,0.00,weatherlink.com 1.10,2013-06-20 00:15:00,
2013-06-19 18:30:00,81.8,63.0,25.53,South,181,25.0,31.0,53,0.00,,,0.00,weatherlink.com 1.10,2013-06-20 00:30:00,
2013-06-19 18:45:00,81.3,62.0,25.53,SW,226,19.0,35.0,53,0.00,,,0.00,weatherlink.com 1.10,2013-06-20 00:45:00,
2013-06-19 19:00:00,80.8,63.0,25.53,South,186,23.0,31.0,54,0.00,,,0.00,weatherlink.com 1.10,2013-06-20 01:00:00,
2013-06-19 19:30:00,79.3,62.0,25.53,WSW,246,16.0,28.0,56,0.00,,,0.00,weatherlink.com 1.10,2013-06-20 01:30:00,
2013-06-19 19:45:00,78.6,62.0,25.54,SSW,193,19.0,33.0,57,0.00,,,0.00,weatherlink.com 1.10,2013-06-20 01:45:00,
2013-06-19 20:00:00,77.5,62.0,25.54,SW,218,19.0,27.0,59,0.00,,,0.00,weatherlink.com 1.10,2013-06-20 02:00:00,
2013-06-19 20:15:00,76.6,62.0,25.54,South,176,17.0,27.0,60,0.00,,,0.00,weatherlink.com 1.10,2013-06-20 02:15:00,
2013-06-19 20:30:00,76.0,62.0,25.54,South,187,24.0,37.0,62,0.00,,,0.00,weatherlink.com 1.10,2013-06-20 02:30:00,
2013-06-19 20:45:00,75.2,62.0,25.55,SSW,195,16.0,26.0,64,0.00,,,0.00,weatherlink.com 1.10,2013-06-20 02:45:00,
2013-06-19 21:00:00,74.6,62.0,25.55,WSW,249,18.0,29.0,66,0.00,,,0.00,weatherlink.com 1.10,2013-06-20 03:00:00,
2013-06-19 21:15:00,74.0,63.0,25.55,SSE,163,21.0,30.0,68,0.00,,,0.00,weatherlink.com 1.10,2013-06-20 03:15:00,
2013-06-19 21:30:00,73.9,62.0,25.56,South,172,15.0,30.0,67,0.00,,,0.00,weatherlink.com 1.10,2013-06-20 03:30:00,
2013-06-19 21:45:00,73.1,62.0,25.56,SW,217,16.0,29.0,69,0.00,,,0.00,weatherlink.com 1.10,2013-06-20 03:45:00,
2013-06-19 22:00:00,72.6,62.0,25.56,SE,143,12.0,28.0,69,0.00,,,0.00,weatherlink.com 1.10,2013-06-20 04:00:00,
2013-06-19 22:15:00,72.3,62.0,25.56,SW,216,23.0,31.0,69,0.00,,,0.00,weatherlink.com 1.10,2013-06-20 04:15:00,
2013-06-19 22:30:00,71.8,61.0,25.56,South,170,22.0,34.0,69,0.00,,,0.00,weatherlink.com 1.10,2013-06-20 04:30:00,
2013-06-19 22:45:00,71.3,61.0,25.56,SW,214,18.0,31.0,69,0.00,,,0.00,weatherlink.com 1.10,2013-06-20 04:45:00,
2013-06-19 23:00:00,70.9,60.0,25.55,SE,146,23.0,31.0,69,0.00,,,0.00,weatherlink.com 1.10,2013-06-20 05:00:00,
2013-06-19 23:15:00,70.8,60.0,25.55,South,180,20.0,29.0,68,0.00,,,0.00,weatherlink.com 1.10,2013-06-20 05:15:00,
2013-06-19 23:30:00,70.7,60.0,25.54,SSW,210,19.0,32.0,68,0.00,,,0.00,weatherlink.com 1.10,2013-06-20 05:30:00,
2013-06-19 23:45:00,70.6,60.0,25.55,SSW,195,26.0,31.0,68,0.00,,,0.00,weatherlink.com 1.10,2013-06-20 05:45:00,